Time;durP1;ratioP1;P1;durP2;ratioP2;P2;SDS_P1;SDS_P2;PMS_P1;PMS_P2;Temp;Humidity;BMP_temperature;BMP_pressure;BME280_temperature;BME280_humidity;BME280_pressure;Samples;Min_cycle;Max_cycle;Signal;HPM_P1;HPM_P2
2022/01/28 00:00:49;;;;;;;17.67;2.38;;;5.20;99.90;;;;;;5051561;28;20104;-65
2022/01/28 00:03:09;;;;;;;13.52;2.03;;;5.10;99.90;;;;;;5043101;28;20056;-66
2022/01/28 00:05:37;;;;;;;21.73;2.92;;;5.10;99.90;;;;;;5033242;28;20055;-66
2022/01/28 00:08:04;;;;;;;20.73;3.38;;;5.10;99.90;;;;;;5034404;28;20052;-66
2022/01/28 00:10:32;;;;;;;11.75;2.58;;;5.10;99.90;;;;;;5055117;28;20044;-66
2022/01/28 00:13:20;;;;;;;13.73;2.08;;;5.10;99.90;;;;;;5054587;28;20126;-65
2022/01/28 00:15:50;;;;;;;17.70;3.30;;;5.10;99.90;;;;;;5037278;28;20072;-65
2022/01/28 00:19:14;;;;;;;15.32;3.10;;;5.00;99.90;;;;;;5037220;28;20051;-65
2022/01/28 00:39:46;;;;;;;19.52;2.38;;;5.20;99.90;;;;;;5054572;28;20044;-66
2022/01/28 00:42:12;;;;;;;14.32;2.67;;;5.10;99.90;;;;;;5054150;28;20456;-65
2022/01/28 00:44:38;;;;;;;23.67;4.28;;;5.10;99.90;;;;;;5054618;28;20041;-66
2022/01/28 00:47:04;;;;;;;15.18;2.47;;;5.00;99.90;;;;;;5055275;28;20105;-67
2022/01/28 00:49:30;;;;;;;17.10;2.55;;;5.00;99.90;;;;;;5054840;28;20520;-66
2022/01/28 00:51:55;;;;;;;13.48;2.53;;;5.00;99.90;;;;;;5036058;28;20044;-66
2022/01/28 00:54:21;;;;;;;14.45;2.20;;;5.00;99.90;;;;;;5054493;28;20040;-66
2022/01/28 00:56:47;;;;;;;18.35;2.65;;;5.00;99.90;;;;;;5054042;28;20524;-66
2022/01/28 00:59:13;;;;;;;13.73;2.42;;;5.00;99.90;;;;;;5054359;28;20102;-66
2022/01/28 01:01:39;;;;;;;18.58;2.58;;;5.10;99.90;;;;;;5054199;28;20033;-66
2022/01/28 01:04:05;;;;;;;13.02;3.05;;;5.10;99.90;;;;;;5036547;28;20045;-67
2022/01/28 01:06:31;;;;;;;14.68;3.17;;;5.00;99.90;;;;;;5037699;28;20519;-67
2022/01/28 01:08:58;;;;;;;17.00;2.67;;;5.10;99.90;;;;;;5056713;28;20041;-67
2022/01/28 01:11:24;;;;;;;18.67;3.40;;;5.10;99.90;;;;;;5056505;28;20041;-66
2022/01/28 01:13:51;;;;;;;12.73;2.67;;;5.00;99.90;;;;;;5037283;28;20045;-64
2022/01/28 01:16:23;;;;;;;13.30;2.72;;;5.00;99.90;;;;;;5054025;28;20481;-64
2022/01/28 01:19:36;;;;;;;15.98;2.40;;;5.00;99.90;;;;;;5053992;28;20045;-65
2022/01/28 01:21:41;;;;;;;18.90;2.38;;;5.00;99.90;;;;;;5043005;28;20094;-65
2022/01/28 01:24:09;;;;;;;20.75;3.25;;;4.90;99.90;;;;;;5053760;28;20117;-65
2022/01/28 01:26:38;;;;;;;15.25;2.63;;;5.00;99.90;;;;;;5053684;28;20416;-65
2022/01/28 01:29:08;;;;;;;13.20;2.75;;;5.00;99.90;;;;;;5053384;28;20045;-65
2022/01/28 01:31:35;;;;;;;13.77;2.40;;;5.00;99.90;;;;;;5035518;28;20037;-65
2022/01/28 01:34:21;;;;;;;14.18;2.40;;;5.00;99.90;;;;;;5053405;28;20451;-65
2022/01/28 01:36:47;;;;;;;17.75;3.13;;;5.00;99.90;;;;;;5053451;28;20037;-65
2022/01/28 01:39:20;;;;;;;16.77;3.05;;;5.10;99.90;;;;;;5053673;28;20044;-66
2022/01/28 01:41:52;;;;;;;23.50;3.38;;;5.10;99.90;;;;;;5053000;28;20052;-66
2022/01/28 01:52:00;;;;;;;19.55;3.47;;;5.00;99.90;;;;;;5052978;28;20509;-66
2022/01/28 01:52:38;;;;;;;14.00;3.00;;;5.00;99.90;;;;;;5052689;28;20051;-66
2022/01/28 01:55:07;;;;;;;26.15;3.40;;;5.10;99.90;;;;;;5053161;28;20361;-64
2022/01/28 01:57:33;;;;;;;20.27;3.45;;;5.00;99.90;;;;;;5035323;28;20421;-65
2022/01/28 01:59:59;;;;;;;17.55;3.10;;;5.10;99.90;;;;;;5036500;28;20128;-65
2022/01/28 02:02:25;;;;;;;13.05;2.63;;;5.10;99.90;;;;;;5053882;28;20474;-65
2022/01/28 02:04:50;;;;;;;22.85;3.55;;;5.10;99.90;;;;;;5053106;28;20036;-65
2022/01/28 02:07:16;;;;;;;13.93;2.60;;;5.10;99.90;;;;;;5052857;28;20124;-65
2022/01/28 02:09:42;;;;;;;22.60;4.35;;;5.10;99.90;;;;;;5052831;28;20060;-65
2022/01/28 02:12:09;;;;;;;13.82;2.90;;;5.10;99.90;;;;;;5052627;28;20033;-64
2022/01/28 02:14:34;;;;;;;8.88;2.40;;;5.10;99.90;;;;;;5053027;28;20098;-64
2022/01/28 02:17:01;;;;;;;22.88;2.70;;;5.10;99.90;;;;;;5052741;28;20121;-64
2022/01/28 02:19:27;;;;;;;13.85;3.58;;;5.20;99.90;;;;;;5052729;28;20044;-65
2022/01/28 02:21:53;;;;;;;23.55;2.70;;;5.20;99.90;;;;;;5052382;28;20029;-64
2022/01/28 02:24:27;;;;;;;17.92;2.80;;;5.10;99.90;;;;;;5052960;28;20139;-65
2022/01/28 02:26:52;;;;;;;11.50;3.30;;;5.10;99.90;;;;;;5052938;28;20044;-64
2022/01/28 02:29:27;;;;;;;16.83;2.95;;;5.10;99.90;;;;;;5052443;28;20114;-64
2022/01/28 02:31:54;;;;;;;18.33;2.95;;;5.20;99.90;;;;;;5052401;28;20087;-65
2022/01/28 02:34:20;;;;;;;18.48;2.92;;;5.10;99.90;;;;;;5055194;28;20095;-65
2022/01/28 02:36:45;;;;;;;21.52;2.60;;;5.10;99.90;;;;;;5054957;28;20037;-64
2022/01/28 02:39:12;;;;;;;11.63;2.72;;;5.10;99.90;;;;;;5052912;28;20041;-65
2022/01/28 02:41:41;;;;;;;25.00;3.05;;;5.10;99.90;;;;;;5034404;28;20123;-66
2022/01/28 02:44:24;;;;;;;21.17;3.28;;;5.10;99.90;;;;;;5052497;28;20123;-65
2022/01/28 02:46:59;;;;;;;26.30;4.75;;;5.20;99.90;;;;;;5052343;28;20036;-65
2022/01/28 02:49:33;;;;;;;13.98;2.58;;;5.20;99.90;;;;;;5052309;28;20037;-65
2022/01/28 02:52:00;;;;;;;15.40;3.17;;;5.20;99.90;;;;;;5051993;28;20037;-65
2022/01/28 02:54:26;;;;;;;17.23;3.35;;;5.20;99.90;;;;;;5052402;28;20045;-65
2022/01/28 02:56:57;;;;;;;17.02;3.53;;;5.20;99.90;;;;;;5052090;28;20453;-64
2022/01/28 02:59:22;;;;;;;18.02;3.33;;;5.30;99.90;;;;;;5052257;28;20037;-64
2022/01/28 03:01:48;;;;;;;18.38;3.55;;;5.30;99.90;;;;;;5051926;28;20105;-65
2022/01/28 03:04:40;;;;;;;16.80;3.30;;;5.30;99.90;;;;;;5052143;28;20048;-65
2022/01/28 03:06:59;;;;;;;19.17;3.08;;;5.30;99.90;;;;;;5051769;28;20076;-65
2022/01/28 03:09:35;;;;;;;17.20;3.72;;;5.30;99.90;;;;;;5034269;28;20479;-65
2022/01/28 03:12:14;;;;;;;21.00;2.88;;;5.30;99.90;;;;;;5033895;28;20052;-65
2022/01/28 03:20:30;;;;;;;11.27;2.30;;;5.20;99.90;;;;;;5053151;28;20406;-65
2022/01/28 03:22:48;;;;;;;12.20;3.03;;;5.20;99.90;;;;;;5052424;28;20081;-65
2022/01/28 03:25:15;;;;;;;21.75;3.00;;;5.20;99.90;;;;;;5052033;28;20047;-65
2022/01/28 03:30:15;;;;;;;16.20;2.97;;;5.20;99.90;;;;;;5051635;28;20084;-65
2022/01/28 03:32:40;;;;;;;15.35;3.28;;;5.20;99.90;;;;;;5051425;28;20079;-65
2022/01/28 03:35:06;;;;;;;17.30;3.80;;;5.20;99.90;;;;;;5051801;28;20065;-66
2022/01/28 03:37:32;;;;;;;14.93;2.75;;;5.20;99.90;;;;;;5051655;28;20033;-67
2022/01/28 03:39:57;;;;;;;21.17;3.58;;;5.20;99.90;;;;;;5051558;28;20068;-66
2022/01/28 03:42:23;;;;;;;21.02;2.92;;;5.20;99.90;;;;;;5051380;28;20119;-66
2022/01/28 03:44:49;;;;;;;18.55;3.15;;;5.10;99.90;;;;;;5055454;28;20124;-66
2022/01/28 03:47:14;;;;;;;22.80;2.95;;;5.20;99.90;;;;;;5055290;28;20049;-66
2022/01/28 03:49:40;;;;;;;17.08;2.97;;;5.10;99.90;;;;;;5055598;28;20516;-66
2022/01/28 03:52:05;;;;;;;19.30;2.88;;;5.20;99.90;;;;;;5037313;28;20045;-64
2022/01/28 03:54:31;;;;;;;16.38;2.97;;;5.20;99.90;;;;;;5055439;28;20090;-66
2022/01/28 03:56:57;;;;;;;13.90;3.00;;;5.20;99.90;;;;;;5055379;28;20036;-66
2022/01/28 03:59:22;;;;;;;16.75;2.80;;;5.10;99.90;;;;;;5054987;28;20072;-66
2022/01/28 04:01:49;;;;;;;16.83;3.08;;;5.20;99.90;;;;;;5055007;28;20052;-66
2022/01/28 04:12:33;;;;;;;23.25;3.20;;;5.10;99.90;;;;;;5055380;28;20049;-66
2022/01/28 04:15:18;;;;;;;14.32;3.20;;;5.10;99.90;;;;;;5037391;28;20080;-66
2022/01/28 04:17:45;;;;;;;19.20;2.75;;;5.10;99.90;;;;;;5055104;28;20382;-66
2022/01/28 04:20:10;;;;;;;21.90;3.60;;;5.10;99.90;;;;;;5055099;28;20037;-66
2022/01/28 04:22:36;;;;;;;19.17;3.25;;;5.20;99.90;;;;;;5054583;28;20081;-66
2022/01/28 04:25:02;;;;;;;15.32;3.03;;;5.20;99.90;;;;;;5055199;28;20086;-67
2022/01/28 04:27:28;;;;;;;22.75;3.67;;;5.20;99.90;;;;;;5054731;28;20032;-66
2022/01/28 04:29:54;;;;;;;24.30;3.67;;;5.20;99.90;;;;;;5054944;28;20513;-67
2022/01/28 04:32:20;;;;;;;20.98;4.25;;;5.20;99.90;;;;;;5054315;28;20037;-66
2022/01/28 04:34:46;;;;;;;24.17;3.45;;;5.10;99.90;;;;;;5054810;28;20041;-66
2022/01/28 04:39:55;;;;;;;17.80;3.20;;;5.20;99.90;;;;;;5055452;28;20083;-66
2022/01/28 04:42:37;;;;;;;19.05;3.70;;;5.20;99.90;;;;;;5055963;28;20033;-66
2022/01/28 04:50:28;;;;;;;18.95;3.22;;;5.20;99.90;;;;;;5054663;28;20060;-66
2022/01/28 05:08:55;;;;;;;21.23;5.30;;;5.30;99.90;;;;;;5054079;28;20040;-66
2022/01/28 05:14:15;;;;;;;29.02;4.32;;;5.30;99.90;;;;;;5053759;28;20045;-67
2022/01/28 05:25:17;;;;;;;23.17;4.43;;;5.30;99.90;;;;;;5035849;28;20049;-66
2022/01/28 05:27:42;;;;;;;17.80;3.40;;;5.30;99.90;;;;;;5053440;28;20503;-66
2022/01/28 05:30:08;;;;;;;26.42;4.18;;;5.30;99.90;;;;;;5053726;28;20512;-66
2022/01/28 05:32:34;;;;;;;19.95;3.40;;;5.30;99.90;;;;;;5053184;28;20063;-66
2022/01/28 05:34:59;;;;;;;24.50;3.88;;;5.30;99.90;;;;;;5053613;28;20032;-66
2022/01/28 05:37:25;;;;;;;31.95;3.53;;;5.30;99.90;;;;;;5053232;28;20064;-67
2022/01/28 05:39:50;;;;;;;32.60;5.35;;;5.20;99.90;;;;;;5053798;28;20403;-65
2022/01/28 05:42:16;;;;;;;22.13;4.32;;;5.30;99.90;;;;;;5054025;28;20128;-65
2022/01/28 05:44:41;;;;;;;19.75;3.13;;;5.30;99.90;;;;;;5055686;28;20041;-65
2022/01/28 05:47:07;;;;;;;22.90;3.40;;;5.30;99.90;;;;;;5054427;28;20048;-65
2022/01/28 05:49:33;;;;;;;23.08;3.92;;;5.20;99.90;;;;;;5035613;28;20106;-65
2022/01/28 05:51:58;;;;;;;20.08;3.45;;;5.20;99.90;;;;;;5053103;28;20041;-65
2022/01/28 05:54:24;;;;;;;20.27;3.47;;;5.30;99.90;;;;;;5053313;28;20037;-65
2022/01/28 05:56:50;;;;;;;28.50;4.45;;;5.20;99.90;;;;;;5053183;28;20041;-66
2022/01/28 05:59:15;;;;;;;25.90;3.72;;;5.30;99.90;;;;;;5053233;28;20070;-66
2022/01/28 06:01:41;;;;;;;25.33;3.75;;;5.30;99.90;;;;;;5053087;28;20029;-66
2022/01/28 06:04:06;;;;;;;22.25;4.38;;;5.30;99.90;;;;;;5054187;28;20128;-66
2022/01/28 06:06:33;;;;;;;25.08;3.88;;;5.20;99.90;;;;;;5054055;28;20045;-66
2022/01/28 06:08:59;;;;;;;20.98;4.10;;;5.20;99.90;;;;;;5053658;28;20041;-65
2022/01/28 06:11:25;;;;;;;23.27;3.35;;;5.10;99.90;;;;;;5053076;28;20048;-66
2022/01/28 06:13:52;;;;;;;28.30;3.50;;;5.10;99.90;;;;;;5052543;28;20051;-65
2022/01/28 06:16:18;;;;;;;29.08;3.40;;;5.10;99.90;;;;;;5052747;28;20051;-65
2022/01/28 06:18:44;;;;;;;18.08;4.15;;;5.10;99.90;;;;;;5052804;28;20116;-65
2022/01/28 06:21:10;;;;;;;25.80;6.25;;;5.10;99.90;;;;;;5052694;28;20064;-66
2022/01/28 06:23:36;;;;;;;25.20;4.10;;;5.10;99.90;;;;;;5052651;28;20036;-65
2022/01/28 06:26:03;;;;;;;20.17;3.65;;;5.10;99.90;;;;;;5052588;28;20550;-65
2022/01/28 06:28:29;;;;;;;24.85;4.05;;;5.10;99.90;;;;;;5052548;28;20044;-65
2022/01/28 06:30:54;;;;;;;24.80;3.97;;;5.20;99.90;;;;;;5052502;28;20045;-66
2022/01/28 06:33:20;;;;;;;18.80;3.67;;;5.20;99.90;;;;;;5052244;28;20120;-65
2022/01/28 06:35:47;;;;;;;30.52;3.78;;;5.10;99.90;;;;;;5052203;28;20111;-66
2022/01/28 06:38:14;;;;;;;19.63;3.08;;;5.20;99.90;;;;;;5052439;28;20073;-66
2022/01/28 06:40:40;;;;;;;18.52;3.80;;;5.20;99.90;;;;;;5052433;28;20040;-65
2022/01/28 06:43:10;;;;;;;22.23;3.92;;;5.20;99.90;;;;;;5052283;28;20166;-65
2022/01/28 06:45:36;;;;;;;29.45;5.00;;;5.20;99.90;;;;;;5052238;28;20036;-65
2022/01/28 06:48:02;;;;;;;28.60;6.35;;;5.20;99.90;;;;;;5052044;28;20048;-65
2022/01/28 06:50:28;;;;;;;28.48;5.18;;;5.30;99.90;;;;;;5052099;28;20036;-65
2022/01/28 06:52:53;;;;;;;20.95;4.90;;;5.30;99.90;;;;;;5051861;28;20041;-65
2022/01/28 06:55:19;;;;;;;19.80;4.03;;;5.30;99.90;;;;;;5052353;28;20037;-65
2022/01/28 06:57:44;;;;;;;25.55;4.50;;;5.30;99.90;;;;;;5052103;28;20488;-65
2022/01/28 07:00:12;;;;;;;22.42;4.90;;;5.30;99.90;;;;;;5052197;28;20043;-65
2022/01/28 07:02:38;;;;;;;30.00;4.53;;;5.20;99.90;;;;;;5051712;28;20116;-65
2022/01/28 07:05:04;;;;;;;16.77;4.07;;;5.20;99.90;;;;;;5051988;28;20539;-66
2022/01/28 07:07:30;;;;;;;33.78;3.97;;;5.30;99.90;;;;;;5051759;28;20056;-66
2022/01/28 07:09:56;;;;;;;22.33;3.85;;;5.20;99.90;;;;;;5052058;28;20036;-65
2022/01/28 07:12:22;;;;;;;21.42;3.92;;;5.20;99.90;;;;;;5051437;28;20051;-64
2022/01/28 07:14:49;;;;;;;26.65;3.70;;;5.20;99.90;;;;;;5047054;28;20076;-65
2022/01/28 07:17:15;;;;;;;24.67;4.72;;;5.10;99.90;;;;;;5028609;28;20038;-65
2022/01/28 07:19:41;;;;;;;26.77;5.72;;;5.10;99.90;;;;;;5011159;28;20047;-66
2022/01/28 07:22:07;;;;;;;21.67;4.50;;;5.20;99.90;;;;;;5031150;28;20116;-65
2022/01/28 07:24:33;;;;;;;28.08;4.88;;;5.10;99.90;;;;;;5014402;28;20053;-66
2022/01/28 07:26:59;;;;;;;22.92;3.85;;;5.10;99.90;;;;;;4996368;28;20557;-66
2022/01/28 07:29:28;;;;;;;19.00;5.05;;;5.10;99.90;;;;;;5031114;28;20095;-66
2022/01/28 07:31:54;;;;;;;19.27;3.55;;;5.10;99.90;;;;;;5031988;28;20073;-65
2022/01/28 07:34:20;;;;;;;24.02;4.35;;;5.10;99.90;;;;;;5031957;28;20120;-65
2022/01/28 07:36:46;;;;;;;22.17;3.38;;;5.00;99.90;;;;;;5031902;28;20156;-66
2022/01/28 07:39:11;;;;;;;21.55;3.33;;;5.00;99.90;;;;;;5031590;28;20033;-66
2022/01/28 07:41:37;;;;;;;30.38;4.10;;;5.00;99.90;;;;;;5031124;28;20041;-65
2022/01/28 07:44:04;;;;;;;28.52;4.05;;;5.10;99.90;;;;;;5031338;28;20041;-65
2022/01/28 07:46:29;;;;;;;26.00;4.38;;;5.10;99.90;;;;;;5031458;28;20056;-66
2022/01/28 07:48:55;;;;;;;33.17;5.20;;;5.10;99.90;;;;;;5031740;28;20042;-65
2022/01/28 07:51:21;;;;;;;20.17;5.07;;;5.00;99.90;;;;;;5031546;28;20053;-65
2022/01/28 07:53:46;;;;;;;21.48;3.72;;;5.00;99.90;;;;;;5031273;28;20139;-65
2022/01/28 07:56:13;;;;;;;27.15;4.15;;;5.00;99.90;;;;;;5031440;28;20034;-66
2022/01/28 07:58:39;;;;;;;24.27;4.00;;;5.10;99.90;;;;;;5031507;28;20038;-66
2022/01/28 08:01:05;;;;;;;28.38;3.90;;;5.10;99.90;;;;;;5031598;28;20452;-63
2022/01/28 08:03:30;;;;;;;22.58;3.67;;;5.10;99.90;;;;;;5031454;28;20052;-64
2022/01/28 08:05:56;;;;;;;31.58;4.90;;;5.10;99.90;;;;;;5031393;28;20040;-66
2022/01/28 08:08:22;;;;;;;23.02;4.00;;;5.10;99.90;;;;;;5031513;28;20291;-65
2022/01/28 08:10:48;;;;;;;30.67;5.25;;;5.00;99.90;;;;;;5031361;28;20111;-65
2022/01/28 08:13:14;;;;;;;29.35;5.88;;;5.00;99.90;;;;;;5030952;28;20049;-64
2022/01/28 08:15:40;;;;;;;38.60;5.97;;;5.10;99.90;;;;;;5031372;28;20060;-64
2022/01/28 08:18:07;;;;;;;25.75;6.68;;;5.10;99.90;;;;;;5031120;28;20041;-65
2022/01/28 08:20:33;;;;;;;33.17;5.32;;;5.10;99.90;;;;;;5031318;28;20038;-64
2022/01/28 08:23:00;;;;;;;30.33;4.80;;;5.10;99.90;;;;;;5013471;28;20482;-65
2022/01/28 08:25:26;;;;;;;22.25;4.30;;;5.20;99.90;;;;;;5031236;28;20567;-65
2022/01/28 08:27:53;;;;;;;18.55;5.07;;;5.20;99.90;;;;;;5031249;28;20038;-65
2022/01/28 08:30:21;;;;;;;22.10;3.95;;;5.20;99.90;;;;;;5050140;28;20576;-64
2022/01/28 08:32:47;;;;;;;27.25;5.15;;;5.20;99.90;;;;;;5060766;28;20409;-65
2022/01/28 08:35:15;;;;;;;30.52;4.20;;;5.20;99.90;;;;;;5073547;28;20044;-64
2022/01/28 08:37:41;;;;;;;28.25;5.05;;;5.30;99.90;;;;;;5073474;28;20039;-64
2022/01/28 08:40:09;;;;;;;21.10;4.07;;;5.30;99.90;;;;;;5072686;28;20036;-64
2022/01/28 08:42:35;;;;;;;23.15;4.10;;;5.30;99.90;;;;;;5074404;28;20037;-64
2022/01/28 08:45:01;;;;;;;26.58;4.68;;;5.20;99.90;;;;;;5075337;28;20036;-68
2022/01/28 08:47:26;;;;;;;17.67;3.83;;;5.20;99.90;;;;;;5075592;28;20409;-65
2022/01/28 08:49:52;;;;;;;19.00;5.03;;;5.30;99.90;;;;;;5074947;28;20044;-65
2022/01/28 08:52:17;;;;;;;29.23;3.85;;;5.30;99.90;;;;;;5074289;28;20552;-65
2022/01/28 08:54:44;;;;;;;20.80;3.75;;;5.30;99.90;;;;;;5074415;28;20086;-65
2022/01/28 08:57:09;;;;;;;22.63;3.95;;;5.30;99.90;;;;;;5074452;28;20036;-65
2022/01/28 08:59:35;;;;;;;19.70;3.63;;;5.30;99.90;;;;;;5074394;28;20449;-65
2022/01/28 09:02:01;;;;;;;26.25;3.67;;;5.30;99.90;;;;;;5073866;28;20094;-65
2022/01/28 09:04:27;;;;;;;17.45;4.47;;;5.30;99.90;;;;;;5074147;28;20044;-64
2022/01/28 09:06:52;;;;;;;26.02;3.88;;;5.30;99.90;;;;;;5074034;28;20051;-64
2022/01/28 09:09:19;;;;;;;21.67;3.70;;;5.30;99.90;;;;;;5073921;28;20040;-64
2022/01/28 09:14:24;;;;;;;21.63;5.22;;;5.40;99.90;;;;;;5073906;28;20051;-64
2022/01/28 09:16:52;;;;;;;21.45;3.53;;;5.40;99.90;;;;;;5073948;28;20048;-64
2022/01/28 09:19:18;;;;;;;25.90;4.07;;;5.40;99.90;;;;;;5073739;28;20033;-64
2022/01/28 09:21:43;;;;;;;21.38;3.72;;;5.40;99.90;;;;;;5073461;28;20044;-64
2022/01/28 09:24:09;;;;;;;21.50;3.67;;;5.40;99.90;;;;;;5073932;28;20048;-64
2022/01/28 09:26:35;;;;;;;26.75;4.22;;;5.40;99.90;;;;;;5073574;28;20094;-64
2022/01/28 09:29:01;;;;;;;18.48;3.53;;;5.40;99.90;;;;;;5045087;28;20042;-64
2022/01/28 09:31:26;;;;;;;33.70;4.43;;;5.50;99.90;;;;;;5032433;28;20052;-64
2022/01/28 09:33:52;;;;;;;27.90;5.05;;;5.50;99.90;;;;;;5033345;28;20410;-64
2022/01/28 09:36:18;;;;;;;15.85;2.97;;;5.40;99.90;;;;;;5015505;28;20398;-64
2022/01/28 09:38:43;;;;;;;26.95;3.60;;;5.50;99.90;;;;;;5033704;28;20064;-64
2022/01/28 09:41:09;;;;;;;24.50;4.13;;;5.60;99.90;;;;;;5032538;28;20025;-64
2022/01/28 09:43:35;;;;;;;29.42;3.67;;;5.60;99.90;;;;;;5033263;28;20095;-64
2022/01/28 09:46:03;;;;;;;23.30;4.10;;;5.70;99.90;;;;;;5033317;28;20033;-65
2022/01/28 09:48:29;;;;;;;34.63;4.45;;;5.70;99.90;;;;;;5033485;28;20081;-64
2022/01/28 09:50:58;;;;;;;28.42;4.40;;;5.80;99.90;;;;;;5033153;28;20073;-66
2022/01/28 09:53:24;;;;;;;18.95;4.03;;;6.20;99.90;;;;;;5032901;28;20462;-66
2022/01/28 09:55:50;;;;;;;21.67;4.55;;;6.10;99.90;;;;;;5033361;28;20071;-64
2022/01/28 09:58:16;;;;;;;30.63;4.78;;;6.30;99.90;;;;;;5037527;28;20045;-66
2022/01/28 10:00:42;;;;;;;21.80;4.07;;;6.30;99.90;;;;;;5036946;28;20033;-66
2022/01/28 10:03:11;;;;;;;31.08;5.13;;;6.30;99.90;;;;;;5032899;28;20175;-65
2022/01/28 10:05:45;;;;;;;25.23;4.13;;;6.40;99.90;;;;;;5032900;28;20119;-66
2022/01/28 10:08:15;;;;;;;23.67;4.75;;;6.30;99.90;;;;;;5033333;28;20371;-66
2022/01/28 10:10:43;;;;;;;23.75;5.40;;;6.40;99.90;;;;;;5041836;28;20025;-66
2022/01/28 10:13:14;;;;;;;18.10;4.63;;;6.50;99.90;;;;;;5043234;28;20052;-66
2022/01/28 10:15:56;;;;;;;24.95;3.75;;;6.50;99.90;;;;;;5061498;28;20048;-65
2022/01/28 10:18:33;;;;;;;22.83;4.93;;;6.50;99.90;;;;;;5062839;28;20040;-66
2022/01/28 10:20:59;;;;;;;26.15;4.45;;;6.50;99.90;;;;;;5063162;28;20036;-66
2022/01/28 10:23:24;;;;;;;42.08;10.70;;;6.50;99.90;;;;;;5060922;28;20039;-67
2022/01/28 10:25:56;;;;;;;41.33;9.50;;;6.60;99.90;;;;;;5060904;28;20424;-66
2022/01/28 10:28:22;;;;;;;23.33;5.22;;;6.50;99.90;;;;;;5070203;28;20044;-64
2022/01/28 10:30:47;;;;;;;38.67;5.45;;;6.60;99.90;;;;;;5051884;28;20045;-65
2022/01/28 10:33:23;;;;;;;16.95;4.13;;;6.60;99.90;;;;;;5054707;28;20047;-65
2022/01/28 10:35:53;;;;;;;28.63;5.20;;;6.60;99.90;;;;;;5061361;28;20037;-65
2022/01/28 10:38:35;;;;;;;30.13;4.32;;;6.60;99.90;;;;;;5061865;28;20082;-65
2022/01/28 10:41:20;;;;;;;25.65;4.15;;;6.60;99.90;;;;;;5062801;28;20489;-65
2022/01/28 10:43:49;;;;;;;28.13;4.47;;;6.70;99.90;;;;;;5056754;28;20600;-65
2022/01/28 10:46:26;;;;;;;20.02;5.13;;;6.70;99.90;;;;;;5051642;28;20033;-65
2022/01/28 10:48:55;;;;;;;27.80;4.45;;;6.80;99.90;;;;;;5034335;28;20049;-65
2022/01/28 10:51:22;;;;;;;34.45;7.53;;;6.80;99.90;;;;;;5063338;28;20047;-65
2022/01/28 10:54:15;;;;;;;37.10;5.47;;;6.80;99.90;;;;;;5061464;28;20041;-65
2022/01/28 10:56:49;;;;;;;31.02;5.43;;;6.80;99.90;;;;;;5060385;28;20037;-65
2022/01/28 10:59:18;;;;;;;30.30;4.50;;;6.80;99.90;;;;;;5052757;28;20119;-65
2022/01/28 11:01:45;;;;;;;28.98;5.38;;;6.80;99.90;;;;;;5026156;28;20029;-65
2022/01/28 11:04:13;;;;;;;30.90;5.97;;;6.80;99.90;;;;;;5053338;28;20053;-65
2022/01/28 11:06:40;;;;;;;31.30;5.50;;;6.90;99.90;;;;;;5053769;28;20041;-65
2022/01/28 11:09:09;;;;;;;27.40;5.72;;;6.90;99.90;;;;;;5051221;28;20505;-66
2022/01/28 11:11:35;;;;;;;17.73;4.57;;;7.00;99.90;;;;;;5053527;28;20051;-66
2022/01/28 11:14:02;;;;;;;28.65;5.10;;;7.00;99.90;;;;;;5053210;28;20087;-66
2022/01/28 11:16:28;;;;;;;28.33;4.65;;;7.10;99.90;;;;;;5051663;28;20068;-66
2022/01/28 11:18:55;;;;;;;33.05;4.13;;;7.10;99.90;;;;;;5017253;28;20079;-66
2022/01/28 11:21:39;;;;;;;16.15;3.28;;;7.10;99.90;;;;;;5033500;28;20044;-66
2022/01/28 11:24:27;;;;;;;20.23;4.20;;;7.10;99.90;;;;;;5051722;28;20397;-66
2022/01/28 11:27:17;;;;;;;18.08;3.28;;;7.10;99.90;;;;;;5051430;28;20040;-66
2022/01/28 11:29:43;;;;;;;20.92;3.70;;;7.10;99.90;;;;;;5051904;28;20072;-66
2022/01/28 11:32:15;;;;;;;23.13;5.25;;;7.10;99.90;;;;;;5033673;28;20490;-66
2022/01/28 11:35:05;;;;;;;26.23;4.38;;;7.10;99.90;;;;;;5052005;28;20048;-66
2022/01/28 11:37:33;;;;;;;20.50;4.28;;;7.20;99.90;;;;;;5051308;28;20041;-66
2022/01/28 11:40:13;;;;;;;23.13;4.43;;;7.20;99.90;;;;;;5051539;28;20083;-67
2022/01/28 11:42:39;;;;;;;20.92;3.58;;;7.10;99.90;;;;;;5051239;28;20052;-66
2022/01/28 11:45:07;;;;;;;21.40;3.50;;;7.20;99.90;;;;;;5051575;28;20037;-67
2022/01/28 11:47:53;;;;;;;21.95;4.55;;;7.20;99.90;;;;;;5051311;28;20056;-66
2022/01/28 11:50:23;;;;;;;21.63;3.85;;;7.30;99.90;;;;;;5051546;28;20041;-66
2022/01/28 11:52:50;;;;;;;30.02;4.13;;;7.20;99.90;;;;;;5050966;28;20037;-66
2022/01/28 11:55:25;;;;;;;19.48;3.75;;;7.30;99.90;;;;;;5051592;28;20037;-67
2022/01/28 11:57:51;;;;;;;24.98;3.60;;;7.30;99.90;;;;;;5048978;28;20090;-66
2022/01/28 12:00:35;;;;;;;27.27;3.90;;;7.30;99.90;;;;;;5038163;28;20432;-66
2022/01/28 12:03:02;;;;;;;20.42;3.45;;;7.30;99.90;;;;;;5049976;28;20045;-66
2022/01/28 12:05:30;;;;;;;21.40;3.25;;;7.30;99.90;;;;;;5053427;28;20033;-66
2022/01/28 12:07:58;;;;;;;23.88;4.32;;;7.30;99.90;;;;;;5054059;28;20040;-66
2022/01/28 12:10:25;;;;;;;15.05;2.92;;;7.30;99.90;;;;;;5054175;28;20045;-66
2022/01/28 12:13:01;;;;;;;23.38;3.40;;;7.30;99.90;;;;;;5053208;28;20076;-66
2022/01/28 12:15:29;;;;;;;25.00;3.92;;;7.30;99.90;;;;;;5054155;28;20041;-69
2022/01/28 12:18:10;;;;;;;18.50;3.10;;;7.40;99.90;;;;;;5054851;28;20116;-68
2022/01/28 12:20:58;;;;;;;18.85;3.65;;;7.30;99.90;;;;;;5054629;28;20472;-66
2022/01/28 12:23:26;;;;;;;29.23;3.85;;;7.40;99.90;;;;;;5053530;28;20382;-66
2022/01/28 12:25:56;;;;;;;16.23;3.42;;;7.30;99.90;;;;;;5022517;28;20405;-66
2022/01/28 12:28:31;;;;;;;21.30;3.35;;;7.60;99.90;;;;;;5056279;28;20052;-66
2022/01/28 12:31:01;;;;;;;24.25;3.75;;;7.40;99.90;;;;;;5055192;28;20044;-66
2022/01/28 12:33:36;;;;;;;17.33;3.25;;;7.40;99.90;;;;;;5054370;28;20048;-66
2022/01/28 12:36:21;;;;;;;17.63;3.25;;;7.40;99.90;;;;;;5054527;28;20091;-66
2022/01/28 12:39:14;;;;;;;27.75;4.03;;;7.40;99.90;;;;;;5054549;28;20037;-66
2022/01/28 12:41:53;;;;;;;17.30;3.42;;;7.40;99.90;;;;;;5054710;28;20048;-65
2022/01/28 12:44:19;;;;;;;17.10;3.53;;;7.40;99.90;;;;;;5036966;28;20049;-65
2022/01/28 12:46:53;;;;;;;30.35;4.82;;;7.40;99.90;;;;;;5054425;28;20041;-65
2022/01/28 12:49:23;;;;;;;23.55;4.22;;;7.40;99.90;;;;;;5020379;28;20124;-65
2022/01/28 12:51:54;;;;;;;28.98;5.63;;;7.50;99.90;;;;;;5054278;28;20036;-65
2022/01/28 12:54:39;;;;;;;18.23;4.43;;;7.50;99.90;;;;;;5035894;28;20071;-65
2022/01/28 12:57:17;;;;;;;41.78;10.32;;;7.50;99.90;;;;;;5054138;28;20037;-65
2022/01/28 12:59:47;;;;;;;30.98;5.47;;;7.40;99.90;;;;;;5054056;28;20508;-66
2022/01/28 13:02:14;;;;;;;32.63;8.50;;;7.50;99.90;;;;;;5054053;28;20040;-65
2022/01/28 13:10:26;;;;;;;50.35;13.35;;;7.50;99.90;;;;;;5054101;28;20095;-65
2022/01/28 13:13:08;;;;;;;26.75;8.00;;;7.50;99.90;;;;;;5053726;28;20136;-66
2022/01/28 13:15:34;;;;;;;28.50;5.35;;;7.60;99.90;;;;;;5053642;28;20526;-65
2022/01/28 13:18:02;;;;;;;39.30;9.55;;;7.50;99.90;;;;;;5053349;28;20052;-65
2022/01/28 13:20:32;;;;;;;37.22;9.13;;;7.60;99.90;;;;;;5053518;28;20098;-64
2022/01/28 13:22:58;;;;;;;27.35;4.95;;;7.70;99.90;;;;;;5053528;28;20045;-65
2022/01/28 13:25:26;;;;;;;23.10;4.00;;;7.70;99.90;;;;;;5053758;28;20037;-66
2022/01/28 13:27:58;;;;;;;18.35;3.35;;;7.60;99.90;;;;;;5053585;28;20132;-66
2022/01/28 13:30:25;;;;;;;22.15;3.95;;;7.60;99.90;;;;;;5053809;28;20424;-64
2022/01/28 13:32:52;;;;;;;19.70;4.22;;;7.50;99.90;;;;;;5053023;28;20045;-64
2022/01/28 13:35:19;;;;;;;19.92;3.08;;;7.50;99.90;;;;;;5053813;28;20037;-65
2022/01/28 13:37:53;;;;;;;22.98;4.68;;;7.60;99.90;;;;;;5054206;28;20116;-65
2022/01/28 13:40:23;;;;;;;23.00;4.10;;;7.50;99.90;;;;;;5056266;28;20072;-65
2022/01/28 13:42:58;;;;;;;22.65;4.03;;;7.50;99.90;;;;;;5054210;28;20052;-65
2022/01/28 13:45:34;;;;;;;16.92;3.42;;;7.50;99.90;;;;;;5053936;28;20124;-65
2022/01/28 13:48:02;;;;;;;17.52;3.70;;;7.50;99.90;;;;;;5053237;28;20095;-65
2022/01/28 13:50:38;;;;;;;28.48;5.28;;;7.50;99.90;;;;;;5035806;28;20086;-65
2022/01/28 13:54:15;;;;;;;25.95;4.65;;;7.40;99.90;;;;;;5052994;28;20140;-66
2022/01/28 13:56:00;;;;;;;22.50;4.55;;;7.40;99.90;;;;;;5042105;28;20421;-65
2022/01/28 13:58:26;;;;;;;17.50;3.90;;;7.40;99.90;;;;;;5053220;28;20033;-65
2022/01/28 14:00:52;;;;;;;18.25;4.80;;;7.40;99.90;;;;;;5053310;28;20041;-64
2022/01/28 14:03:19;;;;;;;22.55;4.00;;;7.40;99.90;;;;;;5052795;28;20084;-65
2022/01/28 14:06:03;;;;;;;29.67;4.50;;;7.40;99.90;;;;;;5053135;28;20045;-65
2022/01/28 14:08:45;;;;;;;16.80;4.95;;;7.50;99.90;;;;;;5052840;28;20497;-65
2022/01/28 14:11:31;;;;;;;19.77;4.43;;;7.40;99.90;;;;;;5053180;28;20090;-66
2022/01/28 14:14:15;;;;;;;26.33;4.18;;;7.40;99.90;;;;;;5052848;28;20041;-66
2022/01/28 14:16:52;;;;;;;26.20;4.18;;;7.50;99.90;;;;;;5033698;28;20090;-66
2022/01/28 14:19:18;;;;;;;34.78;6.53;;;7.40;99.90;;;;;;5015465;28;20065;-66
2022/01/28 14:21:44;;;;;;;20.75;3.78;;;7.50;99.90;;;;;;5032622;28;20528;-66